createdAt,value
2023-03-14T00:05:16.030Z,11.73
2023-03-14T00:07:49.280Z,11.72
2023-03-14T00:10:23.047Z,11.70
2023-03-14T00:12:56.282Z,11.69
2023-03-14T00:15:30.872Z,11.67
2023-03-14T00:18:04.601Z,11.65
2023-03-14T00:20:40.047Z,11.64
2023-03-14T00:30:26.004Z,11.55
2023-03-14T00:35:48.065Z,11.55
2023-03-14T00:38:21.947Z,11.56
2023-03-14T00:40:55.053Z,11.55
2023-03-14T00:43:28.263Z,11.56
2023-03-14T00:46:02.031Z,11.55
2023-03-14T00:59:14.033Z,11.50
2023-03-14T01:01:47.459Z,11.50
2023-03-14T01:04:21.037Z,11.48
2023-03-14T01:06:55.714Z,11.49
2023-03-14T01:09:29.036Z,11.47
2023-03-14T01:26:06.996Z,11.39
2023-03-14T01:28:48.027Z,11.40
2023-03-14T01:31:22.971Z,11.39
2023-03-14T01:33:56.050Z,11.35
2023-03-14T01:36:31.711Z,11.36
2023-03-14T01:39:07.037Z,11.36
2023-03-14T01:52:24.040Z,11.34
2023-03-14T01:55:08.652Z,11.35
2023-03-14T01:57:56.017Z,11.35
2023-03-14T02:00:29.561Z,11.36
2023-03-14T02:03:10.093Z,11.37
2023-03-14T02:05:45.574Z,11.38
2023-03-14T02:18:40.018Z,11.36
2023-03-14T02:22:01.857Z,11.38
2023-03-14T02:24:54.669Z,11.37
2023-03-14T02:27:37.040Z,11.38
2023-03-14T02:30:18.543Z,11.39
2023-03-14T02:43:58.981Z,11.38
2023-03-14T02:46:43.039Z,11.40
2023-03-14T02:49:18.153Z,11.39
2023-03-14T02:51:53.037Z,11.38
2023-03-14T02:54:26.529Z,11.37
2023-03-14T02:57:00.000Z,11.37
2023-03-14T02:59:33.262Z,11.36
2023-03-14T03:12:30.993Z,11.28
2023-03-14T03:15:14.015Z,11.27
2023-03-14T03:17:47.325Z,11.25
2023-03-14T03:20:21.010Z,11.24
2023-03-14T03:22:54.310Z,11.24
2023-03-14T03:25:28.262Z,11.25
2023-03-14T03:38:43.030Z,11.15
2023-03-14T03:41:16.397Z,11.12
2023-03-14T03:43:50.043Z,11.11
2023-03-14T03:46:24.521Z,11.09
2023-03-14T03:49:03.025Z,11.06
2023-03-14T04:05:39.994Z,10.95
2023-03-14T04:08:21.030Z,10.93
2023-03-14T04:10:57.541Z,10.93
2023-03-14T04:13:53.016Z,10.91
2023-03-14T04:16:27.267Z,10.89
2023-03-14T04:19:08.032Z,10.88
2023-03-14T04:32:20.048Z,10.78
2023-03-14T04:34:53.949Z,10.77
2023-03-14T04:37:27.035Z,10.77
2023-03-14T04:40:00.408Z,10.76
2023-03-14T04:42:37.013Z,10.74
2023-03-14T04:45:10.792Z,10.68
2023-03-14T04:58:02.985Z,10.59
2023-03-14T05:00:43.014Z,10.58
2023-03-14T05:03:40.872Z,10.55
2023-03-14T05:06:26.000Z,10.55
2023-03-14T05:09:24.905Z,10.54
2023-03-14T05:26:06.005Z,10.50
2023-03-14T05:28:47.996Z,10.48
2023-03-14T05:31:49.863Z,10.46
2023-03-14T05:34:41.784Z,10.46
2023-03-14T05:37:41.991Z,10.47
2023-03-14T05:40:24.755Z,10.48
2023-03-14T05:53:38.153Z,10.52
2023-03-14T05:56:30.008Z,10.53
2023-03-14T05:59:22.081Z,10.53
2023-03-14T06:02:14.061Z,10.55
2023-03-14T06:05:04.491Z,10.57
2023-03-14T06:18:03.977Z,10.61
2023-03-14T06:20:45.003Z,10.62
2023-03-14T06:23:26.207Z,10.64
2023-03-14T06:26:07.020Z,10.64
2023-03-14T06:28:40.558Z,10.66
2023-03-14T06:31:14.070Z,10.68
2023-03-14T06:44:49.982Z,10.83
2023-03-14T06:47:25.606Z,10.86
2023-03-14T06:50:03.002Z,10.88
2023-03-14T06:52:37.575Z,10.91
2023-03-14T06:55:12.994Z,10.91
2023-03-14T06:57:47.784Z,10.95
2023-03-14T07:00:25.016Z,10.97
2023-03-14T07:13:35.014Z,11.08
2023-03-14T07:16:11.022Z,11.13
2023-03-14T07:18:45.009Z,11.16
2023-03-14T07:21:18.312Z,11.18
2023-03-14T07:23:51.981Z,11.22
2023-03-14T07:40:28.968Z,11.36
2023-03-14T07:43:11.837Z,11.40
2023-03-14T07:45:50.939Z,11.44
2023-03-14T07:48:30.983Z,11.45
2023-03-14T07:51:04.885Z,11.48
2023-03-14T07:53:38.017Z,11.52
2023-03-14T07:56:13.184Z,11.53
2023-03-14T08:05:36.147Z,11.64
2023-03-14T08:08:09.296Z,11.65
2023-03-14T08:10:43.036Z,11.69
2023-03-14T08:13:19.387Z,11.72
2023-03-14T08:15:56.005Z,11.74
2023-03-14T08:18:29.251Z,11.76
2023-03-14T08:21:08.991Z,11.81
2023-03-14T08:31:41.040Z,11.82
2023-03-14T08:34:23.203Z,11.83
2023-03-14T08:36:56.300Z,11.84
2023-03-14T08:39:30.001Z,11.83
2023-03-14T08:42:03.979Z,11.83
2023-03-14T08:44:39.334Z,11.84
2023-03-14T08:58:35.989Z,11.83
2023-03-14T09:01:11.310Z,11.84
2023-03-14T09:03:45.071Z,11.86
2023-03-14T09:06:18.298Z,11.91
2023-03-14T09:08:51.994Z,11.95
2023-03-14T09:11:25.417Z,11.99
2023-03-14T09:14:00.988Z,12.02
2023-03-14T09:27:18.004Z,12.17
2023-03-14T09:29:53.128Z,12.19
2023-03-14T09:32:26.036Z,12.22
2023-03-14T09:34:59.270Z,12.25
2023-03-14T09:37:32.984Z,12.28
2023-03-14T09:40:16.304Z,12.31
2023-03-14T09:53:20.950Z,12.44
2023-03-14T09:56:05.001Z,12.49
2023-03-14T09:58:43.600Z,12.54
2023-03-14T10:01:32.853Z,12.59
2023-03-14T10:04:13.430Z,12.65
2023-03-14T10:20:39.998Z,12.92
2023-03-14T10:23:26.964Z,12.92
2023-03-14T10:26:13.977Z,12.93
2023-03-14T10:28:52.506Z,12.95
2023-03-14T10:31:32.978Z,13.02
2023-03-14T10:34:10.246Z,13.04
2023-03-14T10:47:09.963Z,13.13
2023-03-14T10:49:49.974Z,13.14
2023-03-14T10:52:31.095Z,13.13
2023-03-14T10:55:20.836Z,13.15
2023-03-14T10:57:54.236Z,13.15
2023-03-14T11:00:30.003Z,13.16
2023-03-14T11:13:52.981Z,13.12
2023-03-14T11:16:43.111Z,13.11
2023-03-14T11:19:42.120Z,13.07
2023-03-14T11:22:26.332Z,13.05
2023-03-14T11:25:30.008Z,13.02
2023-03-14T11:39:06.015Z,12.95
2023-03-14T11:41:42.915Z,12.97
2023-03-14T11:44:26.991Z,12.97
2023-03-14T11:47:08.541Z,12.97
2023-03-14T11:49:56.964Z,12.97
2023-03-14T11:52:37.480Z,12.98
2023-03-14T11:55:30.809Z,12.97
2023-03-14T12:05:50.953Z,13.10
2023-03-14T12:08:49.966Z,13.12
2023-03-14T12:11:36.033Z,13.14
2023-03-14T12:14:31.971Z,13.15
2023-03-14T12:17:18.088Z,13.16
2023-03-14T12:20:13.027Z,13.16
2023-03-14T12:33:41.991Z,13.16
2023-03-14T12:36:59.789Z,13.15
2023-03-14T12:39:51.982Z,13.15
2023-03-14T12:42:46.012Z,13.14
2023-03-14T12:45:33.059Z,13.14
2023-03-14T12:59:25.653Z,13.23
2023-03-14T13:02:14.032Z,13.24
2023-03-14T13:04:59.009Z,13.26
2023-03-14T13:07:36.489Z,13.25
2023-03-14T13:10:27.979Z,13.26
2023-03-14T13:13:21.008Z,13.26
2023-03-14T13:16:07.081Z,13.28
2023-03-14T13:26:05.954Z,13.50
2023-03-14T13:28:45.977Z,13.58
2023-03-14T13:31:25.928Z,13.62
2023-03-14T13:34:08.107Z,13.65
2023-03-14T13:36:41.284Z,13.69
2023-03-14T13:39:20.985Z,13.83
2023-03-14T13:52:50.189Z,14.34
2023-03-14T13:55:23.445Z,14.25
2023-03-14T13:57:59.961Z,14.16
2023-03-14T14:00:33.396Z,14.08
2023-03-14T14:03:08.225Z,13.98
2023-03-14T14:05:45.612Z,13.94
2023-03-14T14:19:26.144Z,13.90
2023-03-14T14:22:08.994Z,13.97
2023-03-14T14:24:42.680Z,14.07
2023-03-14T14:27:25.643Z,14.18
2023-03-14T14:30:03.139Z,14.34
2023-03-14T14:32:45.014Z,14.57
2023-03-14T14:35:25.716Z,14.99
2023-03-14T14:48:26.962Z,18.13
2023-03-14T14:51:09.986Z,18.71
2023-03-14T14:53:44.313Z,19.32
2023-03-14T14:56:25.982Z,19.79
2023-03-14T14:59:02.079Z,20.38
2023-03-14T15:15:06.985Z,20.67
2023-03-14T15:17:40.338Z,20.29
2023-03-14T15:20:21.001Z,20.05
2023-03-14T15:22:54.241Z,19.68
2023-03-14T15:25:51.431Z,19.26
2023-03-14T15:39:42.982Z,18.20
2023-03-14T15:42:18.161Z,17.59
2023-03-14T15:44:50.969Z,17.16
2023-03-14T15:47:24.313Z,16.79
2023-03-14T15:49:57.957Z,16.56
2023-03-14T15:52:31.214Z,16.28
2023-03-14T15:55:04.985Z,16.05
2023-03-14T16:08:16.995Z,15.10
2023-03-14T16:10:50.248Z,14.99
2023-03-14T16:13:24.212Z,14.88
2023-03-14T16:16:00.131Z,14.77
2023-03-14T16:18:37.001Z,14.66
2023-03-14T16:21:13.449Z,14.56
2023-03-14T16:34:10.943Z,14.26
2023-03-14T16:36:50.964Z,14.21
2023-03-14T16:39:24.324Z,14.15
2023-03-14T16:41:59.247Z,14.08
2023-03-14T16:44:47.878Z,14.06
2023-03-14T17:01:13.034Z,13.81
2023-03-14T17:03:49.098Z,13.78
2023-03-14T17:06:26.022Z,13.75
2023-03-14T17:08:59.238Z,13.72
2023-03-14T17:11:32.986Z,13.68
2023-03-14T17:14:06.272Z,13.63
2023-03-14T17:26:50.936Z,13.38
2023-03-14T17:29:30.957Z,13.29
2023-03-14T17:32:06.465Z,13.27
2023-03-14T17:34:39.951Z,13.23
2023-03-14T17:37:13.344Z,13.18
2023-03-14T17:39:47.001Z,13.09
2023-03-14T17:53:37.991Z,12.69
2023-03-14T17:56:11.345Z,12.58
2023-03-14T17:58:44.963Z,12.48
2023-03-14T18:01:20.357Z,12.40
2023-03-14T18:03:54.033Z,12.31
2023-03-14T18:06:27.646Z,12.21
2023-03-14T18:09:02.991Z,12.12
2023-03-14T18:11:36.262Z,11.96
2023-03-14T18:21:00.203Z,11.36
2023-03-14T18:23:33.412Z,11.20
2023-03-14T18:26:08.962Z,11.02
2023-03-14T18:28:42.219Z,10.77
2023-03-14T18:31:20.079Z,10.68
2023-03-14T18:33:55.525Z,10.59
2023-03-14T18:36:28.988Z,10.54
2023-03-14T18:46:58.979Z,10.32
2023-03-14T18:49:40.978Z,10.26
2023-03-14T18:52:14.178Z,10.24
2023-03-14T18:54:40.908Z,10.21
2023-03-14T18:57:20.975Z,10.15
2023-03-14T18:59:54.328Z,10.15
2023-03-14T19:16:11.000Z,9.93
2023-03-14T19:18:44.173Z,9.92
2023-03-14T19:21:21.256Z,9.89
2023-03-14T19:23:54.572Z,9.86
2023-03-14T19:26:27.937Z,9.86
2023-03-14T19:29:01.921Z,9.80
2023-03-14T19:31:37.020Z,9.75
2023-03-14T19:41:30.926Z,9.62
2023-03-14T19:44:12.940Z,9.61
2023-03-14T19:46:48.120Z,9.60
2023-03-14T19:49:20.950Z,9.56
2023-03-14T19:51:54.196Z,9.50
2023-03-14T19:54:27.967Z,9.48
2023-03-14T20:07:46.976Z,9.33
2023-03-14T20:10:24.613Z,9.29
2023-03-14T20:12:58.365Z,9.31
2023-03-14T20:15:31.485Z,9.29
2023-03-14T20:18:04.965Z,9.24
2023-03-14T20:20:40.704Z,9.20
2023-03-14T20:34:05.942Z,9.00
2023-03-14T20:36:45.955Z,9.02
2023-03-14T20:39:19.796Z,9.00
2023-03-14T20:41:52.966Z,8.98
2023-03-14T20:44:26.237Z,8.98
2023-03-14T20:46:59.997Z,8.95
2023-03-14T20:49:35.520Z,8.95
2023-03-14T21:02:23.910Z,8.73
2023-03-14T21:05:06.031Z,8.69
2023-03-14T21:07:39.216Z,8.65
2023-03-14T21:10:15.942Z,8.67
2023-03-14T21:12:49.167Z,8.62
2023-03-14T21:15:22.974Z,8.62
2023-03-14T21:31:07.538Z,8.32
2023-03-14T21:33:34.474Z,8.31
2023-03-14T21:36:15.938Z,8.29
2023-03-14T21:38:49.256Z,8.25
2023-03-14T21:41:22.942Z,8.23
2023-03-14T21:54:34.920Z,8.08
2023-03-14T21:57:09.706Z,8.04
2023-03-14T21:59:44.933Z,8.05
2023-03-14T22:02:19.639Z,8.01
2023-03-14T22:04:52.953Z,8.01
2023-03-14T22:07:26.170Z,8.00
2023-03-14T22:10:00.952Z,7.97
2023-03-14T22:23:10.945Z,7.89
2023-03-14T22:25:47.425Z,7.91
2023-03-14T22:28:27.949Z,7.95
2023-03-14T22:31:03.351Z,7.96
2023-03-14T22:33:37.136Z,7.93
2023-03-14T22:36:11.208Z,7.89
2023-03-14T22:49:01.905Z,7.83
2023-03-14T22:51:41.912Z,7.79
2023-03-14T22:54:15.130Z,7.77
2023-03-14T22:56:41.886Z,7.74
2023-03-14T22:59:21.930Z,7.71
2023-03-14T23:15:58.909Z,7.57
2023-03-14T23:18:38.914Z,7.59
2023-03-14T23:21:16.190Z,7.61
2023-03-14T23:23:56.945Z,7.59
2023-03-14T23:26:30.251Z,7.55
2023-03-14T23:29:03.941Z,7.54
2023-03-14T23:31:39.297Z,7.50
2023-03-14T23:41:22.924Z,7.48
2023-03-14T23:43:56.233Z,7.48
2023-03-14T23:46:29.927Z,7.46
2023-03-14T23:49:05.149Z,7.43
2023-03-14T23:51:38.931Z,7.41
2023-03-14T23:54:12.249Z,7.40
2023-03-14T23:56:45.927Z,7.38
